sensor_id;sensor_type;location;lat;lon;timestamp;P1;durP1;ratioP1;P2;durP2;ratioP2
21806;SDS011;11065;50.786;7.840;2022-07-10T00:01:27;1.93;;;1.00;;
21806;SDS011;11065;50.786;7.840;2022-07-10T00:03:53;2.80;;;1.10;;
21806;SDS011;11065;50.786;7.840;2022-07-10T00:06:21;2.57;;;1.10;;
21806;SDS011;11065;50.786;7.840;2022-07-10T00:08:48;2.07;;;1.00;;
21806;SDS011;11065;50.786;7.840;2022-07-10T00:11:14;3.33;;;1.17;;
21806;SDS011;11065;50.786;7.840;2022-07-10T00:13:41;2.07;;;1.00;;
21806;SDS011;11065;50.786;7.840;2022-07-10T00:16:08;3.37;;;1.00;;
21806;SDS011;11065;50.786;7.840;2022-07-10T00:18:36;2.43;;;1.03;;
21806;SDS011;11065;50.786;7.840;2022-07-10T00:21:03;2.57;;;1.20;;
21806;SDS011;11065;50.786;7.840;2022-07-10T00:23:30;2.20;;;0.93;;
21806;SDS011;11065;50.786;7.840;2022-07-10T00:25:57;2.43;;;1.07;;
21806;SDS011;11065;50.786;7.840;2022-07-10T00:28:24;1.53;;;0.80;;
21806;SDS011;11065;50.786;7.840;2022-07-10T00:30:51;3.67;;;1.00;;
21806;SDS011;11065;50.786;7.840;2022-07-10T00:33:18;1.97;;;0.80;;
21806;SDS011;11065;50.786;7.840;2022-07-10T00:35:45;2.10;;;0.90;;
21806;SDS011;11065;50.786;7.840;2022-07-10T00:38:12;1.87;;;0.90;;
21806;SDS011;11065;50.786;7.840;2022-07-10T00:40:38;2.80;;;0.73;;
21806;SDS011;11065;50.786;7.840;2022-07-10T00:43:08;2.87;;;0.90;;
21806;SDS011;11065;50.786;7.840;2022-07-10T00:45:35;3.43;;;0.90;;
21806;SDS011;11065;50.786;7.840;2022-07-10T00:48:03;2.50;;;1.17;;
21806;SDS011;11065;50.786;7.840;2022-07-10T00:50:30;2.07;;;0.90;;
21806;SDS011;11065;50.786;7.840;2022-07-10T00:52:57;5.03;;;1.40;;
21806;SDS011;11065;50.786;7.840;2022-07-10T00:55:24;1.70;;;0.80;;
21806;SDS011;11065;50.786;7.840;2022-07-10T00:57:51;3.17;;;0.93;;
21806;SDS011;11065;50.786;7.840;2022-07-10T01:00:18;3.33;;;1.07;;
21806;SDS011;11065;50.786;7.840;2022-07-10T01:02:45;3.77;;;0.90;;
21806;SDS011;11065;50.786;7.840;2022-07-10T01:05:12;2.37;;;0.77;;
21806;SDS011;11065;50.786;7.840;2022-07-10T01:07:39;2.60;;;0.80;;
21806;SDS011;11065;50.786;7.840;2022-07-10T01:10:06;2.80;;;0.90;;
21806;SDS011;11065;50.786;7.840;2022-07-10T01:12:33;2.03;;;0.73;;
21806;SDS011;11065;50.786;7.840;2022-07-10T01:15:00;3.03;;;1.00;;
21806;SDS011;11065;50.786;7.840;2022-07-10T01:17:27;2.10;;;0.80;;
21806;SDS011;11065;50.786;7.840;2022-07-10T01:19:56;1.97;;;0.70;;
21806;SDS011;11065;50.786;7.840;2022-07-10T01:22:22;2.77;;;1.07;;
21806;SDS011;11065;50.786;7.840;2022-07-10T01:24:49;3.00;;;1.10;;
21806;SDS011;11065;50.786;7.840;2022-07-10T01:27:16;2.00;;;1.00;;
21806;SDS011;11065;50.786;7.840;2022-07-10T01:29:43;4.10;;;1.00;;
21806;SDS011;11065;50.786;7.840;2022-07-10T01:32:11;3.13;;;0.80;;
21806;SDS011;11065;50.786;7.840;2022-07-10T01:34:38;2.93;;;1.10;;
21806;SDS011;11065;50.786;7.840;2022-07-10T01:37:06;1.63;;;0.80;;
21806;SDS011;11065;50.786;7.840;2022-07-10T01:39:32;2.83;;;1.00;;
21806;SDS011;11065;50.786;7.840;2022-07-10T01:41:59;1.87;;;0.90;;
21806;SDS011;11065;50.786;7.840;2022-07-10T01:44:27;3.53;;;0.77;;
21806;SDS011;11065;50.786;7.840;2022-07-10T01:46:53;3.17;;;0.90;;
21806;SDS011;11065;50.786;7.840;2022-07-10T01:49:20;2.17;;;0.80;;
21806;SDS011;11065;50.786;7.840;2022-07-10T01:51:47;1.50;;;0.80;;
21806;SDS011;11065;50.786;7.840;2022-07-10T01:54:14;1.53;;;0.70;;
21806;SDS011;11065;50.786;7.840;2022-07-10T01:56:41;2.33;;;0.60;;
21806;SDS011;11065;50.786;7.840;2022-07-10T01:59:08;2.67;;;0.80;;
21806;SDS011;11065;50.786;7.840;2022-07-10T02:01:34;1.50;;;0.50;;
21806;SDS011;11065;50.786;7.840;2022-07-10T02:04:03;3.73;;;0.60;;
21806;SDS011;11065;50.786;7.840;2022-07-10T02:06:48;2.47;;;0.70;;
21806;SDS011;11065;50.786;7.840;2022-07-10T02:09:15;2.30;;;0.70;;
21806;SDS011;11065;50.786;7.840;2022-07-10T02:11:42;3.00;;;0.87;;
21806;SDS011;11065;50.786;7.840;2022-07-10T02:14:09;2.27;;;0.60;;
21806;SDS011;11065;50.786;7.840;2022-07-10T02:16:36;2.87;;;0.70;;
21806;SDS011;11065;50.786;7.840;2022-07-10T02:19:04;2.60;;;0.70;;
21806;SDS011;11065;50.786;7.840;2022-07-10T02:21:31;2.80;;;0.83;;
21806;SDS011;11065;50.786;7.840;2022-07-10T02:23:58;2.27;;;0.80;;
21806;SDS011;11065;50.786;7.840;2022-07-10T02:26:25;1.63;;;0.70;;
21806;SDS011;11065;50.786;7.840;2022-07-10T02:28:51;1.93;;;0.80;;
21806;SDS011;11065;50.786;7.840;2022-07-10T02:31:18;2.40;;;0.90;;
21806;SDS011;11065;50.786;7.840;2022-07-10T02:33:45;2.53;;;0.60;;
21806;SDS011;11065;50.786;7.840;2022-07-10T02:36:12;0.90;;;0.50;;
21806;SDS011;11065;50.786;7.840;2022-07-10T02:38:39;3.27;;;0.67;;
21806;SDS011;11065;50.786;7.840;2022-07-10T02:41:07;2.87;;;0.93;;
21806;SDS011;11065;50.786;7.840;2022-07-10T02:43:34;2.97;;;0.83;;
21806;SDS011;11065;50.786;7.840;2022-07-10T02:46:00;1.63;;;0.60;;
21806;SDS011;11065;50.786;7.840;2022-07-10T02:48:28;2.37;;;0.90;;
21806;SDS011;11065;50.786;7.840;2022-07-10T02:50:55;3.60;;;0.70;;
21806;SDS011;11065;50.786;7.840;2022-07-10T02:53:22;1.73;;;0.90;;
21806;SDS011;11065;50.786;7.840;2022-07-10T02:55:48;1.70;;;0.60;;
21806;SDS011;11065;50.786;7.840;2022-07-10T02:58:15;1.33;;;0.73;;
21806;SDS011;11065;50.786;7.840;2022-07-10T03:00:43;1.63;;;0.60;;
21806;SDS011;11065;50.786;7.840;2022-07-10T03:03:10;2.17;;;0.70;;
21806;SDS011;11065;50.786;7.840;2022-07-10T03:05:37;1.57;;;0.70;;
21806;SDS011;11065;50.786;7.840;2022-07-10T03:08:04;2.37;;;0.63;;
21806;SDS011;11065;50.786;7.840;2022-07-10T03:10:31;1.80;;;0.70;;
21806;SDS011;11065;50.786;7.840;2022-07-10T03:12:58;2.37;;;0.70;;
21806;SDS011;11065;50.786;7.840;2022-07-10T03:15:25;3.70;;;1.17;;
21806;SDS011;11065;50.786;7.840;2022-07-10T03:17:52;1.90;;;0.80;;
21806;SDS011;11065;50.786;7.840;2022-07-10T03:20:19;2.80;;;0.73;;
21806;SDS011;11065;50.786;7.840;2022-07-10T03:22:46;2.83;;;0.80;;
21806;SDS011;11065;50.786;7.840;2022-07-10T03:25:13;2.53;;;0.67;;
21806;SDS011;11065;50.786;7.840;2022-07-10T03:27:40;2.13;;;0.90;;
21806;SDS011;11065;50.786;7.840;2022-07-10T03:30:07;3.10;;;0.77;;
21806;SDS011;11065;50.786;7.840;2022-07-10T03:32:35;1.80;;;0.70;;
21806;SDS011;11065;50.786;7.840;2022-07-10T03:35:02;2.20;;;1.00;;
21806;SDS011;11065;50.786;7.840;2022-07-10T03:37:29;1.83;;;0.77;;
21806;SDS011;11065;50.786;7.840;2022-07-10T03:39:55;1.97;;;0.80;;
21806;SDS011;11065;50.786;7.840;2022-07-10T03:42:22;3.07;;;0.70;;
21806;SDS011;11065;50.786;7.840;2022-07-10T03:44:49;2.53;;;0.87;;
21806;SDS011;11065;50.786;7.840;2022-07-10T03:47:16;1.30;;;0.70;;
21806;SDS011;11065;50.786;7.840;2022-07-10T03:49:43;3.13;;;0.90;;
21806;SDS011;11065;50.786;7.840;2022-07-10T03:52:09;3.07;;;0.90;;
21806;SDS011;11065;50.786;7.840;2022-07-10T03:54:36;2.47;;;0.70;;
21806;SDS011;11065;50.786;7.840;2022-07-10T03:57:03;1.63;;;0.73;;
21806;SDS011;11065;50.786;7.840;2022-07-10T03:59:49;1.13;;;0.70;;
21806;SDS011;11065;50.786;7.840;2022-07-10T04:02:16;2.50;;;0.73;;
21806;SDS011;11065;50.786;7.840;2022-07-10T04:04:43;1.57;;;0.70;;
21806;SDS011;11065;50.786;7.840;2022-07-10T04:07:11;2.93;;;0.80;;
21806;SDS011;11065;50.786;7.840;2022-07-10T04:09:39;3.10;;;0.83;;
21806;SDS011;11065;50.786;7.840;2022-07-10T04:12:06;2.67;;;1.13;;
21806;SDS011;11065;50.786;7.840;2022-07-10T04:14:33;3.30;;;1.00;;
21806;SDS011;11065;50.786;7.840;2022-07-10T04:16:59;2.23;;;1.00;;
21806;SDS011;11065;50.786;7.840;2022-07-10T04:19:26;3.13;;;1.10;;
21806;SDS011;11065;50.786;7.840;2022-07-10T04:21:53;3.33;;;0.90;;
21806;SDS011;11065;50.786;7.840;2022-07-10T04:24:21;2.30;;;0.90;;
21806;SDS011;11065;50.786;7.840;2022-07-10T04:26:48;3.23;;;1.20;;
21806;SDS011;11065;50.786;7.840;2022-07-10T04:29:15;0.97;;;0.67;;
21806;SDS011;11065;50.786;7.840;2022-07-10T04:31:42;3.17;;;0.80;;
21806;SDS011;11065;50.786;7.840;2022-07-10T04:34:09;2.97;;;0.90;;
21806;SDS011;11065;50.786;7.840;2022-07-10T04:36:36;2.73;;;1.00;;
21806;SDS011;11065;50.786;7.840;2022-07-10T04:39:03;4.13;;;1.00;;
21806;SDS011;11065;50.786;7.840;2022-07-10T04:41:30;2.87;;;1.07;;
21806;SDS011;11065;50.786;7.840;2022-07-10T04:43:57;4.03;;;1.10;;
21806;SDS011;11065;50.786;7.840;2022-07-10T04:46:24;3.03;;;0.80;;
21806;SDS011;11065;50.786;7.840;2022-07-10T04:48:51;2.17;;;0.90;;
21806;SDS011;11065;50.786;7.840;2022-07-10T04:51:18;2.03;;;1.07;;
21806;SDS011;11065;50.786;7.840;2022-07-10T04:53:44;2.43;;;1.00;;
21806;SDS011;11065;50.786;7.840;2022-07-10T04:56:11;2.40;;;0.83;;
21806;SDS011;11065;50.786;7.840;2022-07-10T04:58:38;5.37;;;1.40;;
21806;SDS011;11065;50.786;7.840;2022-07-10T05:01:06;1.80;;;0.80;;
21806;SDS011;11065;50.786;7.840;2022-07-10T05:03:33;2.60;;;0.93;;
21806;SDS011;11065;50.786;7.840;2022-07-10T05:05:59;2.80;;;1.10;;
21806;SDS011;11065;50.786;7.840;2022-07-10T05:08:26;3.03;;;0.90;;
21806;SDS011;11065;50.786;7.840;2022-07-10T05:10:53;2.43;;;0.90;;
21806;SDS011;11065;50.786;7.840;2022-07-10T05:13:20;4.60;;;0.93;;
21806;SDS011;11065;50.786;7.840;2022-07-10T05:15:47;2.70;;;0.80;;
21806;SDS011;11065;50.786;7.840;2022-07-10T05:18:14;1.93;;;0.90;;
21806;SDS011;11065;50.786;7.840;2022-07-10T05:20:41;2.93;;;0.90;;
21806;SDS011;11065;50.786;7.840;2022-07-10T05:23:10;3.83;;;0.93;;
21806;SDS011;11065;50.786;7.840;2022-07-10T05:25:37;3.03;;;1.10;;
21806;SDS011;11065;50.786;7.840;2022-07-10T05:28:04;2.47;;;0.87;;
21806;SDS011;11065;50.786;7.840;2022-07-10T05:30:31;3.57;;;0.90;;
21806;SDS011;11065;50.786;7.840;2022-07-10T05:32:59;4.60;;;1.23;;
21806;SDS011;11065;50.786;7.840;2022-07-10T05:35:26;2.07;;;0.77;;
21806;SDS011;11065;50.786;7.840;2022-07-10T05:37:53;2.77;;;1.10;;
21806;SDS011;11065;50.786;7.840;2022-07-10T05:40:20;2.60;;;1.13;;
21806;SDS011;11065;50.786;7.840;2022-07-10T05:42:47;4.80;;;1.33;;
21806;SDS011;11065;50.786;7.840;2022-07-10T05:45:14;3.93;;;1.20;;
21806;SDS011;11065;50.786;7.840;2022-07-10T05:47:41;3.77;;;1.10;;
21806;SDS011;11065;50.786;7.840;2022-07-10T05:50:08;3.53;;;0.80;;
21806;SDS011;11065;50.786;7.840;2022-07-10T05:52:35;5.30;;;1.10;;
21806;SDS011;11065;50.786;7.840;2022-07-10T05:55:02;2.50;;;1.00;;
21806;SDS011;11065;50.786;7.840;2022-07-10T05:57:30;3.30;;;1.03;;
21806;SDS011;11065;50.786;7.840;2022-07-10T06:00:00;3.30;;;1.00;;
21806;SDS011;11065;50.786;7.840;2022-07-10T06:02:36;2.27;;;1.00;;
21806;SDS011;11065;50.786;7.840;2022-07-10T06:05:04;2.33;;;0.90;;
21806;SDS011;11065;50.786;7.840;2022-07-10T06:07:31;1.57;;;0.90;;
21806;SDS011;11065;50.786;7.840;2022-07-10T06:09:59;3.57;;;1.33;;
21806;SDS011;11065;50.786;7.840;2022-07-10T06:12:26;6.50;;;1.57;;
21806;SDS011;11065;50.786;7.840;2022-07-10T06:14:52;2.20;;;0.90;;
21806;SDS011;11065;50.786;7.840;2022-07-10T06:17:19;3.23;;;1.00;;
21806;SDS011;11065;50.786;7.840;2022-07-10T06:19:46;3.47;;;0.90;;
21806;SDS011;11065;50.786;7.840;2022-07-10T06:22:13;2.77;;;1.10;;
21806;SDS011;11065;50.786;7.840;2022-07-10T06:24:58;4.27;;;1.00;;
21806;SDS011;11065;50.786;7.840;2022-07-10T06:27:26;3.07;;;0.80;;
21806;SDS011;11065;50.786;7.840;2022-07-10T06:29:54;3.10;;;1.00;;
21806;SDS011;11065;50.786;7.840;2022-07-10T06:32:21;3.10;;;0.90;;
21806;SDS011;11065;50.786;7.840;2022-07-10T06:34:48;3.30;;;0.93;;
21806;SDS011;11065;50.786;7.840;2022-07-10T06:37:15;3.17;;;0.90;;
21806;SDS011;11065;50.786;7.840;2022-07-10T06:39:42;3.03;;;0.90;;
21806;SDS011;11065;50.786;7.840;2022-07-10T06:42:08;3.53;;;1.07;;
21806;SDS011;11065;50.786;7.840;2022-07-10T06:44:39;2.63;;;0.97;;
21806;SDS011;11065;50.786;7.840;2022-07-10T06:47:13;3.53;;;1.03;;
21806;SDS011;11065;50.786;7.840;2022-07-10T06:50:04;3.13;;;0.90;;
21806;SDS011;11065;50.786;7.840;2022-07-10T06:52:35;3.00;;;1.00;;
21806;SDS011;11065;50.786;7.840;2022-07-10T06:55:02;4.20;;;1.27;;
21806;SDS011;11065;50.786;7.840;2022-07-10T06:57:30;3.27;;;1.20;;
21806;SDS011;11065;50.786;7.840;2022-07-10T06:59:57;6.97;;;1.33;;
21806;SDS011;11065;50.786;7.840;2022-07-10T07:02:24;4.87;;;1.30;;
21806;SDS011;11065;50.786;7.840;2022-07-10T07:04:51;3.20;;;1.10;;
21806;SDS011;11065;50.786;7.840;2022-07-10T07:07:18;2.70;;;1.00;;
21806;SDS011;11065;50.786;7.840;2022-07-10T07:09:50;4.87;;;1.27;;
21806;SDS011;11065;50.786;7.840;2022-07-10T07:12:17;2.60;;;0.80;;
21806;SDS011;11065;50.786;7.840;2022-07-10T07:14:44;2.63;;;1.20;;
21806;SDS011;11065;50.786;7.840;2022-07-10T07:17:11;5.97;;;1.40;;
21806;SDS011;11065;50.786;7.840;2022-07-10T07:19:40;4.67;;;1.10;;
21806;SDS011;11065;50.786;7.840;2022-07-10T07:22:25;2.73;;;0.80;;
21806;SDS011;11065;50.786;7.840;2022-07-10T07:25:11;3.77;;;1.20;;
21806;SDS011;11065;50.786;7.840;2022-07-10T07:27:38;3.10;;;0.90;;
21806;SDS011;11065;50.786;7.840;2022-07-10T07:30:06;3.60;;;1.20;;
21806;SDS011;11065;50.786;7.840;2022-07-10T07:32:37;2.43;;;0.80;;
21806;SDS011;11065;50.786;7.840;2022-07-10T07:35:05;5.83;;;1.10;;
21806;SDS011;11065;50.786;7.840;2022-07-10T07:40:08;5.53;;;1.30;;
21806;SDS011;11065;50.786;7.840;2022-07-10T07:42:36;3.47;;;0.90;;
21806;SDS011;11065;50.786;7.840;2022-07-10T07:45:04;2.20;;;0.80;;
21806;SDS011;11065;50.786;7.840;2022-07-10T07:47:31;3.23;;;1.07;;
21806;SDS011;11065;50.786;7.840;2022-07-10T07:50:20;2.57;;;0.93;;
21806;SDS011;11065;50.786;7.840;2022-07-10T07:52:48;3.40;;;0.90;;
21806;SDS011;11065;50.786;7.840;2022-07-10T07:55:16;2.93;;;0.80;;
21806;SDS011;11065;50.786;7.840;2022-07-10T07:57:44;3.53;;;0.80;;
21806;SDS011;11065;50.786;7.840;2022-07-10T08:00:12;2.63;;;0.70;;
21806;SDS011;11065;50.786;7.840;2022-07-10T08:02:43;4.47;;;1.00;;
21806;SDS011;11065;50.786;7.840;2022-07-10T08:05:11;4.47;;;0.70;;
21806;SDS011;11065;50.786;7.840;2022-07-10T08:10:10;4.70;;;0.93;;
21806;SDS011;11065;50.786;7.840;2022-07-10T08:12:39;3.50;;;1.10;;
21806;SDS011;11065;50.786;7.840;2022-07-10T08:15:07;4.60;;;0.90;;
21806;SDS011;11065;50.786;7.840;2022-07-10T08:17:38;2.37;;;0.57;;
21806;SDS011;11065;50.786;7.840;2022-07-10T08:20:09;3.17;;;0.70;;
21806;SDS011;11065;50.786;7.840;2022-07-10T08:22:38;2.10;;;0.90;;
21806;SDS011;11065;50.786;7.840;2022-07-10T08:25:06;2.63;;;0.83;;
21806;SDS011;11065;50.786;7.840;2022-07-10T08:27:34;2.80;;;0.83;;
21806;SDS011;11065;50.786;7.840;2022-07-10T08:30:02;3.97;;;0.80;;
21806;SDS011;11065;50.786;7.840;2022-07-10T08:32:29;3.67;;;0.80;;
21806;SDS011;11065;50.786;7.840;2022-07-10T08:34:56;2.77;;;1.13;;
21806;SDS011;11065;50.786;7.840;2022-07-10T08:37:24;1.97;;;0.60;;
21806;SDS011;11065;50.786;7.840;2022-07-10T08:39:51;2.10;;;0.70;;
21806;SDS011;11065;50.786;7.840;2022-07-10T08:42:18;2.33;;;0.70;;
21806;SDS011;11065;50.786;7.840;2022-07-10T08:44:47;3.97;;;0.80;;
21806;SDS011;11065;50.786;7.840;2022-07-10T08:47:14;3.07;;;0.70;;
21806;SDS011;11065;50.786;7.840;2022-07-10T08:49:48;5.40;;;0.90;;
21806;SDS011;11065;50.786;7.840;2022-07-10T08:52:35;2.50;;;0.60;;
21806;SDS011;11065;50.786;7.840;2022-07-10T08:55:26;3.17;;;0.50;;
21806;SDS011;11065;50.786;7.840;2022-07-10T08:57:54;2.67;;;0.67;;
21806;SDS011;11065;50.786;7.840;2022-07-10T09:00:24;2.20;;;0.67;;
21806;SDS011;11065;50.786;7.840;2022-07-10T09:02:54;2.80;;;0.80;;
21806;SDS011;11065;50.786;7.840;2022-07-10T09:05:25;4.07;;;0.80;;
21806;SDS011;11065;50.786;7.840;2022-07-10T09:07:53;3.60;;;0.63;;
21806;SDS011;11065;50.786;7.840;2022-07-10T09:10:21;2.47;;;0.73;;
21806;SDS011;11065;50.786;7.840;2022-07-10T09:12:51;2.80;;;0.50;;
21806;SDS011;11065;50.786;7.840;2022-07-10T09:15:21;3.67;;;0.83;;
21806;SDS011;11065;50.786;7.840;2022-07-10T09:17:56;2.60;;;0.80;;
21806;SDS011;11065;50.786;7.840;2022-07-10T09:22:56;2.10;;;0.50;;
21806;SDS011;11065;50.786;7.840;2022-07-10T09:25:31;4.03;;;0.80;;
21806;SDS011;11065;50.786;7.840;2022-07-10T09:28:01;2.47;;;0.80;;
21806;SDS011;11065;50.786;7.840;2022-07-10T09:30:32;2.10;;;0.60;;
21806;SDS011;11065;50.786;7.840;2022-07-10T09:33:20;2.03;;;0.60;;
21806;SDS011;11065;50.786;7.840;2022-07-10T09:36:07;4.60;;;0.60;;
21806;SDS011;11065;50.786;7.840;2022-07-10T09:43:45;1.63;;;0.60;;
21806;SDS011;11065;50.786;7.840;2022-07-10T09:46:16;1.90;;;0.57;;
21806;SDS011;11065;50.786;7.840;2022-07-10T09:48:44;2.07;;;0.60;;
21806;SDS011;11065;50.786;7.840;2022-07-10T09:51:11;3.53;;;0.60;;
21806;SDS011;11065;50.786;7.840;2022-07-10T09:53:39;4.07;;;0.77;;
21806;SDS011;11065;50.786;7.840;2022-07-10T09:56:08;1.60;;;0.70;;
21806;SDS011;11065;50.786;7.840;2022-07-10T09:58:36;1.50;;;0.50;;
21806;SDS011;11065;50.786;7.840;2022-07-10T10:01:07;2.13;;;0.70;;
21806;SDS011;11065;50.786;7.840;2022-07-10T10:03:36;2.93;;;0.80;;
21806;SDS011;11065;50.786;7.840;2022-07-10T10:06:10;3.23;;;0.67;;
21806;SDS011;11065;50.786;7.840;2022-07-10T10:11:35;4.00;;;0.70;;
21806;SDS011;11065;50.786;7.840;2022-07-10T10:14:06;2.27;;;0.80;;
21806;SDS011;11065;50.786;7.840;2022-07-10T10:16:34;2.57;;;0.87;;
21806;SDS011;11065;50.786;7.840;2022-07-10T10:19:03;3.33;;;1.13;;
21806;SDS011;11065;50.786;7.840;2022-07-10T10:21:48;3.53;;;0.83;;
21806;SDS011;11065;50.786;7.840;2022-07-10T10:24:16;2.80;;;0.80;;
21806;SDS011;11065;50.786;7.840;2022-07-10T10:26:43;3.37;;;0.90;;
21806;SDS011;11065;50.786;7.840;2022-07-10T10:29:11;4.03;;;0.90;;
21806;SDS011;11065;50.786;7.840;2022-07-10T10:31:39;2.23;;;0.90;;
21806;SDS011;11065;50.786;7.840;2022-07-10T10:34:07;1.43;;;0.60;;
21806;SDS011;11065;50.786;7.840;2022-07-10T10:39:11;2.67;;;0.50;;
21806;SDS011;11065;50.786;7.840;2022-07-10T10:41:40;2.33;;;0.70;;
21806;SDS011;11065;50.786;7.840;2022-07-10T10:46:53;1.27;;;0.70;;
21806;SDS011;11065;50.786;7.840;2022-07-10T10:49:47;3.30;;;1.20;;
21806;SDS011;11065;50.786;7.840;2022-07-10T10:52:22;2.73;;;0.80;;
21806;SDS011;11065;50.786;7.840;2022-07-10T10:57:34;2.73;;;0.70;;
21806;SDS011;11065;50.786;7.840;2022-07-10T11:00:06;2.77;;;0.77;;
21806;SDS011;11065;50.786;7.840;2022-07-10T11:02:35;2.37;;;0.80;;
21806;SDS011;11065;50.786;7.840;2022-07-10T11:10:31;2.37;;;0.80;;
21806;SDS011;11065;50.786;7.840;2022-07-10T11:13:05;2.23;;;0.83;;
21806;SDS011;11065;50.786;7.840;2022-07-10T11:15:40;1.80;;;0.70;;
21806;SDS011;11065;50.786;7.840;2022-07-10T11:18:10;1.60;;;0.60;;
21806;SDS011;11065;50.786;7.840;2022-07-10T11:20:39;1.20;;;0.40;;
21806;SDS011;11065;50.786;7.840;2022-07-10T11:23:29;1.60;;;0.57;;
21806;SDS011;11065;50.786;7.840;2022-07-10T11:26:24;1.77;;;0.40;;
21806;SDS011;11065;50.786;7.840;2022-07-10T11:29:05;1.57;;;0.40;;
21806;SDS011;11065;50.786;7.840;2022-07-10T11:31:32;2.27;;;0.50;;
21806;SDS011;11065;50.786;7.840;2022-07-10T11:34:11;1.10;;;0.30;;
21806;SDS011;11065;50.786;7.840;2022-07-10T11:36:38;0.80;;;0.40;;
21806;SDS011;11065;50.786;7.840;2022-07-10T11:39:06;0.70;;;0.40;;
21806;SDS011;11065;50.786;7.840;2022-07-10T11:41:41;0.93;;;0.40;;
21806;SDS011;11065;50.786;7.840;2022-07-10T11:44:12;0.53;;;0.40;;
21806;SDS011;11065;50.786;7.840;2022-07-10T11:46:44;0.90;;;0.40;;
21806;SDS011;11065;50.786;7.840;2022-07-10T11:49:12;0.90;;;0.30;;
21806;SDS011;11065;50.786;7.840;2022-07-10T11:51:41;1.27;;;0.37;;
21806;SDS011;11065;50.786;7.840;2022-07-10T11:54:12;0.40;;;0.27;;
21806;SDS011;11065;50.786;7.840;2022-07-10T11:56:49;1.77;;;0.60;;
21806;SDS011;11065;50.786;7.840;2022-07-10T11:59:24;2.13;;;0.40;;
21806;SDS011;11065;50.786;7.840;2022-07-10T12:01:54;0.73;;;0.30;;
21806;SDS011;11065;50.786;7.840;2022-07-10T12:04:22;0.70;;;0.30;;
21806;SDS011;11065;50.786;7.840;2022-07-10T12:06:52;0.93;;;0.30;;
21806;SDS011;11065;50.786;7.840;2022-07-10T12:09:20;0.60;;;0.37;;
21806;SDS011;11065;50.786;7.840;2022-07-10T12:11:58;0.80;;;0.40;;
21806;SDS011;11065;50.786;7.840;2022-07-10T12:14:32;0.83;;;0.40;;
21806;SDS011;11065;50.786;7.840;2022-07-10T12:17:01;2.03;;;0.50;;
21806;SDS011;11065;50.786;7.840;2022-07-10T12:19:37;1.07;;;0.40;;
21806;SDS011;11065;50.786;7.840;2022-07-10T12:22:05;1.37;;;0.60;;
21806;SDS011;11065;50.786;7.840;2022-07-10T12:24:32;1.53;;;0.60;;
21806;SDS011;11065;50.786;7.840;2022-07-10T12:26:59;0.80;;;0.50;;
21806;SDS011;11065;50.786;7.840;2022-07-10T12:29:27;2.30;;;0.50;;
21806;SDS011;11065;50.786;7.840;2022-07-10T12:31:56;0.73;;;0.30;;
21806;SDS011;11065;50.786;7.840;2022-07-10T12:37:06;1.37;;;0.70;;
21806;SDS011;11065;50.786;7.840;2022-07-10T12:39:36;1.30;;;0.50;;
21806;SDS011;11065;50.786;7.840;2022-07-10T12:42:06;0.77;;;0.40;;
21806;SDS011;11065;50.786;7.840;2022-07-10T12:44:34;1.63;;;0.40;;
21806;SDS011;11065;50.786;7.840;2022-07-10T12:47:10;1.57;;;0.93;;
21806;SDS011;11065;50.786;7.840;2022-07-10T12:52:19;0.33;;;0.30;;
21806;SDS011;11065;50.786;7.840;2022-07-10T12:57:49;1.30;;;0.63;;
21806;SDS011;11065;50.786;7.840;2022-07-10T13:02:59;1.03;;;0.40;;
21806;SDS011;11065;50.786;7.840;2022-07-10T13:05:32;2.00;;;0.50;;
21806;SDS011;11065;50.786;7.840;2022-07-10T13:08:12;1.67;;;0.30;;
21806;SDS011;11065;50.786;7.840;2022-07-10T13:10:41;1.53;;;0.60;;
21806;SDS011;11065;50.786;7.840;2022-07-10T13:13:10;0.27;;;0.23;;
21806;SDS011;11065;50.786;7.840;2022-07-10T13:15:37;0.43;;;0.30;;
21806;SDS011;11065;50.786;7.840;2022-07-10T13:18:13;1.50;;;0.40;;
21806;SDS011;11065;50.786;7.840;2022-07-10T13:20:41;0.90;;;0.30;;
21806;SDS011;11065;50.786;7.840;2022-07-10T13:23:08;1.70;;;0.60;;
21806;SDS011;11065;50.786;7.840;2022-07-10T13:25:38;1.90;;;0.50;;
21806;SDS011;11065;50.786;7.840;2022-07-10T13:28:06;0.50;;;0.47;;
21806;SDS011;11065;50.786;7.840;2022-07-10T13:30:34;0.40;;;0.30;;
21806;SDS011;11065;50.786;7.840;2022-07-10T13:33:01;0.53;;;0.30;;
21806;SDS011;11065;50.786;7.840;2022-07-10T13:35:29;1.00;;;0.30;;
21806;SDS011;11065;50.786;7.840;2022-07-10T13:37:57;0.93;;;0.30;;
21806;SDS011;11065;50.786;7.840;2022-07-10T13:40:29;0.50;;;0.30;;
21806;SDS011;11065;50.786;7.840;2022-07-10T13:42:58;0.33;;;0.27;;
21806;SDS011;11065;50.786;7.840;2022-07-10T13:45:25;1.83;;;0.50;;
21806;SDS011;11065;50.786;7.840;2022-07-10T13:47:56;1.20;;;0.80;;
21806;SDS011;11065;50.786;7.840;2022-07-10T13:50:23;1.17;;;0.70;;
21806;SDS011;11065;50.786;7.840;2022-07-10T13:52:51;1.30;;;1.03;;
21806;SDS011;11065;50.786;7.840;2022-07-10T13:55:18;1.80;;;1.37;;
21806;SDS011;11065;50.786;7.840;2022-07-10T13:57:44;1.37;;;1.10;;
21806;SDS011;11065;50.786;7.840;2022-07-10T14:00:12;1.37;;;1.10;;
21806;SDS011;11065;50.786;7.840;2022-07-10T14:02:39;1.47;;;1.10;;
21806;SDS011;11065;50.786;7.840;2022-07-10T14:05:06;1.40;;;1.20;;
21806;SDS011;11065;50.786;7.840;2022-07-10T14:07:34;1.70;;;1.40;;
21806;SDS011;11065;50.786;7.840;2022-07-10T14:10:01;2.20;;;1.70;;
21806;SDS011;11065;50.786;7.840;2022-07-10T14:12:29;2.23;;;1.77;;
21806;SDS011;11065;50.786;7.840;2022-07-10T14:14:57;2.37;;;1.80;;
21806;SDS011;11065;50.786;7.840;2022-07-10T14:17:24;2.27;;;2.00;;
21806;SDS011;11065;50.786;7.840;2022-07-10T14:19:51;2.93;;;1.87;;
21806;SDS011;11065;50.786;7.840;2022-07-10T14:22:18;2.10;;;1.70;;
21806;SDS011;11065;50.786;7.840;2022-07-10T14:24:45;2.50;;;1.93;;
21806;SDS011;11065;50.786;7.840;2022-07-10T14:27:12;2.57;;;1.97;;
21806;SDS011;11065;50.786;7.840;2022-07-10T14:29:39;3.27;;;2.50;;
21806;SDS011;11065;50.786;7.840;2022-07-10T14:32:06;3.17;;;2.43;;
21806;SDS011;11065;50.786;7.840;2022-07-10T14:34:33;3.67;;;2.63;;
21806;SDS011;11065;50.786;7.840;2022-07-10T14:37:00;3.37;;;2.67;;
21806;SDS011;11065;50.786;7.840;2022-07-10T14:39:27;2.93;;;2.27;;
21806;SDS011;11065;50.786;7.840;2022-07-10T14:41:54;2.83;;;2.30;;
21806;SDS011;11065;50.786;7.840;2022-07-10T14:44:22;3.17;;;2.30;;
21806;SDS011;11065;50.786;7.840;2022-07-10T14:46:49;2.97;;;2.10;;
21806;SDS011;11065;50.786;7.840;2022-07-10T14:49:16;2.70;;;2.10;;
21806;SDS011;11065;50.786;7.840;2022-07-10T14:51:42;2.57;;;2.03;;
21806;SDS011;11065;50.786;7.840;2022-07-10T14:54:09;2.13;;;1.93;;
21806;SDS011;11065;50.786;7.840;2022-07-10T14:56:36;3.23;;;2.30;;
21806;SDS011;11065;50.786;7.840;2022-07-10T14:59:04;2.80;;;2.27;;
21806;SDS011;11065;50.786;7.840;2022-07-10T15:01:40;3.33;;;2.50;;
21806;SDS011;11065;50.786;7.840;2022-07-10T15:04:07;3.50;;;2.70;;
21806;SDS011;11065;50.786;7.840;2022-07-10T15:06:34;3.40;;;2.53;;
21806;SDS011;11065;50.786;7.840;2022-07-10T15:09:01;2.73;;;2.10;;
21806;SDS011;11065;50.786;7.840;2022-07-10T15:11:28;3.77;;;2.63;;
21806;SDS011;11065;50.786;7.840;2022-07-10T15:13:55;3.17;;;2.60;;
21806;SDS011;11065;50.786;7.840;2022-07-10T15:16:26;3.63;;;2.40;;
21806;SDS011;11065;50.786;7.840;2022-07-10T15:18:54;2.87;;;2.20;;
21806;SDS011;11065;50.786;7.840;2022-07-10T15:21:22;2.70;;;2.13;;
21806;SDS011;11065;50.786;7.840;2022-07-10T15:23:49;3.37;;;2.30;;
21806;SDS011;11065;50.786;7.840;2022-07-10T15:26:16;2.90;;;2.50;;
21806;SDS011;11065;50.786;7.840;2022-07-10T15:28:44;3.30;;;2.73;;
21806;SDS011;11065;50.786;7.840;2022-07-10T15:31:11;2.43;;;2.17;;
21806;SDS011;11065;50.786;7.840;2022-07-10T15:33:38;3.50;;;2.53;;
21806;SDS011;11065;50.786;7.840;2022-07-10T15:36:11;3.70;;;2.70;;
21806;SDS011;11065;50.786;7.840;2022-07-10T15:38:39;2.20;;;1.87;;